Time;durP1;ratioP1;P1;durP2;ratioP2;P2;SDS_P1;SDS_P2;PMS_P1;PMS_P2;Temp;Humidity;BMP_temperature;BMP_pressure;BME280_temperature;BME280_humidity;BME280_pressure;Samples;Min_cycle;Max_cycle;Signal;HPM_P1;HPM_P2
2022/05/12 00:00:35;;;;;;;8.50;7.67;;;;;;;;;;5027826;28;20206;-77
2022/05/12 00:03:07;;;;;;;8.90;7.50;;;;;;;;;;5029864;28;20262;-77
2022/05/12 00:05:33;;;;;;;7.83;7.13;;;;;;;;;;5034028;28;20646;-77
2022/05/12 00:08:01;;;;;;;10.43;7.10;;;;;;;;;;5024777;28;20364;-77
2022/05/12 00:10:27;;;;;;;8.03;6.63;;;;;;;;;;5032306;28;20191;-77
2022/05/12 00:12:57;;;;;;;8.67;7.07;;;;;;;;;;5030486;28;20638;-77
2022/05/12 00:15:30;;;;;;;7.43;6.33;;;;;;;;;;5032245;28;20190;-77
2022/05/12 00:17:56;;;;;;;8.17;6.57;;;;;;;;;;5031153;28;20210;-77
2022/05/12 00:20:29;;;;;;;10.13;7.07;;;;;;;;;;5030768;28;20182;-77
2022/05/12 00:23:14;;;;;;;10.50;6.63;;;;;;;;;;5024919;28;20182;-77
2022/05/12 00:25:57;;;;;;;7.50;6.67;;;;;;;;;;5032675;28;20225;-77
2022/05/12 00:28:26;;;;;;;10.40;6.20;;;;;;;;;;5026571;28;20202;-77
2022/05/12 00:30:56;;;;;;;7.60;6.23;;;;;;;;;;5031734;28;20174;-77
2022/05/12 00:33:27;;;;;;;9.33;6.90;;;;;;;;;;5048301;28;20269;-77
2022/05/12 00:35:55;;;;;;;10.67;6.43;;;;;;;;;;5026033;28;20191;-77
2022/05/12 00:38:24;;;;;;;10.50;6.10;;;;;;;;;;5031759;28;20202;-77
2022/05/12 00:40:53;;;;;;;10.53;5.90;;;;;;;;;;5032009;28;20274;-77
2022/05/12 00:43:35;;;;;;;6.77;6.07;;;;;;;;;;5028712;28;20253;-77
2022/05/12 00:46:03;;;;;;;6.17;5.67;;;;;;;;;;5015719;28;20191;-77
2022/05/12 00:48:32;;;;;;;7.23;5.70;;;;;;;;;;5032772;28;20206;-77
2022/05/12 00:51:01;;;;;;;5.83;5.17;;;;;;;;;;5032867;28;20178;-77
2022/05/12 00:53:31;;;;;;;5.43;4.93;;;;;;;;;;5027665;28;20218;-77
2022/05/12 00:55:58;;;;;;;5.73;5.13;;;;;;;;;;5036606;28;20182;-77
2022/05/12 00:58:30;;;;;;;4.90;4.50;;;;;;;;;;5036706;28;20198;-77
2022/05/12 01:01:00;;;;;;;6.73;4.70;;;;;;;;;;5032018;28;20198;-77
2022/05/12 01:03:27;;;;;;;5.93;4.43;;;;;;;;;;5040563;28;20248;-77
2022/05/12 01:05:56;;;;;;;7.60;4.60;;;;;;;;;;5035792;28;20182;-76
2022/05/12 01:08:26;;;;;;;6.27;4.77;;;;;;;;;;5033510;28;20198;-77
2022/05/12 01:10:56;;;;;;;5.13;4.73;;;;;;;;;;5030898;28;20205;-77
2022/05/12 01:13:23;;;;;;;4.67;4.20;;;;;;;;;;5035035;28;20183;-77
2022/05/12 01:15:55;;;;;;;5.77;4.00;;;;;;;;;;5032371;28;20582;-77
2022/05/12 01:18:24;;;;;;;6.00;4.33;;;;;;;;;;5037152;28;20261;-77
2022/05/12 01:20:52;;;;;;;4.57;4.17;;;;;;;;;;5033626;28;20218;-76
2022/05/12 01:23:22;;;;;;;6.03;3.93;;;;;;;;;;5034153;28;20248;-76
2022/05/12 01:25:49;;;;;;;4.00;3.60;;;30.70;36.70;;;;;;5040161;28;20194;-77
2022/05/12 01:28:18;;;;;;;4.00;3.70;;;20.30;99.90;;;;;;5037190;28;20226;-77
2022/05/12 01:30:45;;;;;;;4.50;4.10;;;19.90;99.90;;;;;;5029280;28;20189;-77
2022/05/12 01:33:11;;;;;;;3.93;3.53;;;19.90;99.90;;;;;;5033274;28;20187;-77
2022/05/12 01:35:38;;;;;;;5.37;4.10;;;20.00;99.90;;;;;;5033115;28;20256;-77
2022/05/12 01:38:09;;;;;;;4.10;3.70;;;20.00;99.90;;;;;;5030141;28;20217;-77
2022/05/12 01:40:35;;;;;;;4.37;3.53;;;20.00;99.90;;;;;;5031042;28;20186;-77
2022/05/12 01:43:01;;;;;;;4.70;3.37;;;20.00;99.90;;;;;;5027858;28;20269;-77
2022/05/12 01:45:30;;;;;;;4.40;4.00;;;20.10;99.90;;;;;;5031419;28;20190;-77
2022/05/12 01:47:57;;;;;;;4.37;3.97;;;20.10;99.90;;;;;;5018542;28;20202;-77
2022/05/12 01:50:23;;;;;;;4.00;3.50;;;20.10;99.90;;;;;;5030622;28;20198;-77
2022/05/12 01:52:50;;;;;;;5.53;3.50;;;20.10;99.90;;;;;;5031728;28;20636;-77
2022/05/12 01:55:18;;;;;;;4.73;4.20;;;20.10;99.90;;;;;;5031775;28;20197;-77
2022/05/12 01:57:45;;;;;;;4.80;3.40;;;20.20;99.90;;;;;;5031184;28;20202;-77
2022/05/12 02:00:15;;;;;;;4.10;3.63;;;20.20;99.90;;;;;;5028044;28;20586;-77
2022/05/12 02:02:41;;;;;;;3.90;3.50;;;20.20;99.90;;;;;;5030176;28;20248;-77
2022/05/12 02:05:10;;;;;;;4.17;3.10;;;20.10;99.80;;;;;;5032773;28;20186;-76
2022/05/12 02:07:42;;;;;;;6.20;3.57;;;20.10;99.90;;;;;;5034338;28;20579;-76
2022/05/12 02:10:18;;;;;;;5.13;3.17;;;20.10;99.90;;;;;;5031833;28;20190;-77
2022/05/12 02:12:44;;;;;;;4.50;3.20;;;20.20;99.90;;;;;;5030248;28;20678;-77
2022/05/12 02:15:11;;;;;;;4.43;3.40;;;20.20;97.90;;;;;;5026361;28;20190;-77
2022/05/12 02:17:40;;;;;;;3.67;3.10;;;20.10;96.10;;;;;;5028137;28;20214;-77
2022/05/12 02:20:07;;;;;;;6.73;3.07;;;20.10;95.70;;;;;;5029768;28;20272;-77
2022/05/12 02:22:33;;;;;;;3.50;3.07;;;20.10;95.70;;;;;;5032971;28;20580;-77
2022/05/12 02:25:07;;;;;;;3.30;3.00;;;20.10;97.00;;;;;;5031477;28;20206;-77
2022/05/12 02:27:33;;;;;;;4.43;3.10;;;20.10;92.90;;;;;;5031846;28;20225;-77
2022/05/12 02:29:59;;;;;;;3.40;3.10;;;20.00;94.40;;;;;;5033090;28;20186;-77
2022/05/12 02:32:33;;;;;;;3.93;3.07;;;19.90;92.40;;;;;;5038236;28;20746;-77
2022/05/12 02:34:59;;;;;;;4.97;3.20;;;19.90;92.20;;;;;;5043165;28;20190;-77
2022/05/12 02:37:26;;;;;;;3.53;3.03;;;20.00;91.80;;;;;;5031011;28;22379;-77
2022/05/12 02:39:52;;;;;;;4.40;3.10;;;20.00;90.00;;;;;;5022589;28;20194;-77
2022/05/12 02:42:24;;;;;;;4.00;2.90;;;19.90;89.20;;;;;;5025532;28;20654;-77
2022/05/12 02:44:50;;;;;;;6.93;3.23;;;20.00;90.20;;;;;;5030261;28;20245;-77
2022/05/12 02:47:17;;;;;;;3.20;2.90;;;20.00;89.70;;;;;;5033033;28;20201;-77
2022/05/12 02:49:43;;;;;;;4.03;2.97;;;20.00;89.30;;;;;;5031007;28;20258;-77
2022/05/12 02:52:12;;;;;;;3.10;2.90;;;20.00;89.10;;;;;;5032922;28;20183;-77
2022/05/12 02:54:38;;;;;;;5.83;3.03;;;19.90;89.40;;;;;;5033142;28;20220;-77
2022/05/12 02:57:05;;;;;;;4.10;2.70;;;19.90;87.20;;;;;;5031845;28;20221;-77
2022/05/12 02:59:31;;;;;;;6.23;3.03;;;19.80;89.20;;;;;;5034046;28;20178;-77
2022/05/12 03:01:58;;;;;;;3.80;2.80;;;19.80;89.50;;;;;;5030744;28;20198;-77
2022/05/12 03:04:27;;;;;;;4.07;2.70;;;19.70;86.80;;;;;;5031407;28;20218;-77
2022/05/12 03:06:56;;;;;;;4.13;2.90;;;19.60;89.70;;;;;;5030943;28;20209;-77
2022/05/12 03:09:25;;;;;;;2.87;2.40;;;19.60;88.00;;;;;;5028965;28;20213;-77
2022/05/12 03:11:51;;;;;;;4.03;2.63;;;19.60;93.10;;;;;;5029887;28;20179;-77
2022/05/12 03:14:18;;;;;;;3.67;2.83;;;19.50;93.90;;;;;;5030701;28;20182;-77
2022/05/12 03:16:44;;;;;;;2.83;2.40;;;19.50;90.30;;;;;;5031852;28;20238;-77
2022/05/12 03:19:11;;;;;;;3.37;2.80;;;19.50;91.30;;;;;;5029436;28;20655;-77
2022/05/12 03:21:37;;;;;;;2.97;2.40;;;19.40;90.90;;;;;;5031386;28;20183;-77
2022/05/12 03:24:06;;;;;;;3.07;2.60;;;19.40;90.50;;;;;;5031747;28;20329;-77
2022/05/12 03:26:35;;;;;;;2.70;2.50;;;19.40;90.40;;;;;;5030370;28;20182;-77
2022/05/12 03:29:01;;;;;;;4.23;3.00;;;19.40;91.00;;;;;;5031222;28;20265;-77
2022/05/12 03:31:33;;;;;;;3.57;2.80;;;19.40;90.40;;;;;;5032174;28;20270;-77
2022/05/12 03:34:06;;;;;;;6.00;2.80;;;19.30;91.40;;;;;;5032890;28;20217;-77
2022/05/12 03:36:39;;;;;;;3.20;2.50;;;19.30;94.10;;;;;;5030701;28;20186;-77
2022/05/12 03:39:07;;;;;;;3.07;2.37;;;19.30;90.60;;;;;;5029400;28;20178;-77
2022/05/12 03:41:34;;;;;;;4.77;2.60;;;19.20;93.50;;;;;;5031245;28;20238;-77
2022/05/12 03:46:48;;;;;;;2.97;2.60;;;19.20;95.00;;;;;;5032578;28;21233;-77
2022/05/12 03:49:14;;;;;;;3.20;2.90;;;19.20;93.00;;;;;;5012911;28;20179;-77
2022/05/12 03:51:41;;;;;;;6.23;3.13;;;19.10;92.90;;;;;;5031399;28;20254;-77
2022/05/12 03:54:14;;;;;;;6.37;2.90;;;19.10;95.70;;;;;;5029931;28;20194;-77
2022/05/12 03:56:45;;;;;;;3.13;2.47;;;19.00;98.40;;;;;;5033097;28;20220;-77
2022/05/12 03:59:12;;;;;;;4.47;3.13;;;19.00;98.70;;;;;;5028057;28;20272;-77
2022/05/12 04:01:38;;;;;;;3.10;2.80;;;19.00;95.10;;;;;;5031088;28;20205;-77
2022/05/12 04:04:09;;;;;;;5.23;3.00;;;19.00;94.70;;;;;;5029258;28;20242;-77
2022/05/12 04:06:36;;;;;;;3.70;2.90;;;19.00;93.20;;;;;;5030413;28;20274;-77
2022/05/12 04:09:12;;;;;;;3.07;2.77;;;19.00;93.00;;;;;;5029271;28;20238;-77
2022/05/12 04:11:42;;;;;;;4.23;2.90;;;19.10;95.30;;;;;;5029925;28;20190;-77
2022/05/12 04:14:09;;;;;;;3.80;3.00;;;19.10;93.30;;;;;;5027392;28;20229;-77
2022/05/12 04:16:38;;;;;;;3.50;2.70;;;19.10;93.80;;;;;;5031156;28;20335;-77
2022/05/12 04:19:10;;;;;;;3.37;2.80;;;19.10;93.60;;;;;;5029830;28;20174;-77
2022/05/12 04:21:42;;;;;;;5.43;3.20;;;19.10;94.10;;;;;;5032292;28;20176;-77
2022/05/12 04:24:13;;;;;;;3.93;3.10;;;19.20;93.70;;;;;;5029847;28;20211;-75
2022/05/12 04:27:11;;;;;;;4.27;3.30;;;19.20;93.30;;;;;;5014815;28;20240;-76
2022/05/12 04:29:39;;;;;;;6.00;2.80;;;19.20;92.90;;;;;;5029941;28;20191;-76
2022/05/12 04:32:08;;;;;;;3.17;2.87;;;19.20;93.30;;;;;;5032194;28;20216;-76
2022/05/12 04:37:32;;;;;;;3.77;2.87;;;19.20;96.60;;;;;;5030597;28;20238;-76
2022/05/12 04:40:12;;;;;;;2.67;2.40;;;19.30;93.90;;;;;;5028955;28;20202;-76
2022/05/12 04:42:38;;;;;;;2.53;2.27;;;19.30;93.70;;;;;;5031154;28;20201;-76
2022/05/12 04:45:07;;;;;;;5.63;2.47;;;19.30;94.00;;;;;;5030855;28;20294;-76
2022/05/12 04:47:34;;;;;;;3.23;2.40;;;19.30;94.60;;;;;;5029734;28;20201;-76
2022/05/12 04:50:01;;;;;;;4.47;2.33;;;19.40;93.60;;;;;;5029237;28;20186;-77
2022/05/12 04:52:31;;;;;;;2.87;2.20;;;19.40;94.60;;;;;;5031619;28;20195;-76
2022/05/12 04:54:57;;;;;;;2.77;2.37;;;19.40;94.40;;;;;;5014648;28;20202;-76
2022/05/12 04:57:26;;;;;;;4.93;2.27;;;19.40;93.90;;;;;;5032281;28;20714;-76
2022/05/12 04:59:55;;;;;;;3.77;2.10;;;19.40;93.60;;;;;;5027127;28;20528;-77
2022/05/12 05:02:22;;;;;;;3.20;2.40;;;19.40;93.00;;;;;;5025996;28;20221;-76
2022/05/12 05:04:49;;;;;;;5.40;2.30;;;19.40;93.60;;;;;;5029241;28;20202;-77
2022/05/12 05:07:16;;;;;;;2.27;2.07;;;19.40;93.30;;;;;;5025469;28;20213;-78
2022/05/12 05:09:43;;;;;;;4.50;2.50;;;19.40;93.40;;;;;;5023725;28;20190;-77
2022/05/12 05:12:12;;;;;;;3.53;2.17;;;19.50;94.10;;;;;;5025672;28;20186;-76
2022/05/12 05:14:41;;;;;;;2.67;2.03;;;19.60;94.30;;;;;;5029850;28;20273;-78
2022/05/12 05:17:08;;;;;;;5.27;2.17;;;19.60;94.00;;;;;;5029801;28;20190;-76
2022/05/12 05:19:35;;;;;;;4.10;2.17;;;19.60;95.10;;;;;;5027685;28;20524;-77
2022/05/12 05:22:04;;;;;;;3.23;2.10;;;19.70;93.80;;;;;;5022686;28;20236;-77
2022/05/12 05:24:30;;;;;;;4.30;2.40;;;19.80;93.50;;;;;;5027709;28;20207;-77
2022/05/12 05:26:57;;;;;;;2.60;1.83;;;19.80;92.20;;;;;;5026465;28;20638;-79
2022/05/12 05:29:23;;;;;;;4.07;2.20;;;19.80;92.20;;;;;;5033162;28;20185;-82
2022/05/12 05:31:50;;;;;;;2.53;2.27;;;19.80;92.40;;;;;;5027908;28;20507;-82
2022/05/12 05:34:16;;;;;;;3.83;2.47;;;19.90;93.10;;;;;;5026006;28;20340;-81
2022/05/12 05:36:45;;;;;;;3.10;2.30;;;19.90;92.90;;;;;;5029129;28;20711;-80
2022/05/12 05:39:24;;;;;;;2.77;2.10;;;20.00;92.50;;;;;;5020847;28;20190;-81
2022/05/12 05:41:55;;;;;;;3.60;2.50;;;20.00;93.10;;;;;;5027376;28;20189;-77
2022/05/12 05:44:21;;;;;;;3.10;2.50;;;20.00;91.50;;;;;;5023530;28;20198;-80
2022/05/12 05:46:48;;;;;;;3.43;2.37;;;20.00;92.80;;;;;;5025790;28;20678;-81
2022/05/12 05:49:16;;;;;;;4.33;2.30;;;20.10;94.10;;;;;;5039990;28;20576;-79
2022/05/12 05:54:31;;;;;;;4.47;2.40;;;20.20;92.70;;;;;;5015720;28;20186;-75
2022/05/12 05:56:58;;;;;;;3.83;2.40;;;20.20;94.10;;;;;;5030345;28;20577;-75
2022/05/12 05:59:24;;;;;;;6.13;2.30;;;20.20;93.60;;;;;;5031111;28;20209;-75
2022/05/12 06:01:51;;;;;;;4.00;2.20;;;20.30;92.70;;;;;;5030087;28;20194;-75
2022/05/12 06:04:17;;;;;;;4.47;2.17;;;20.30;92.00;;;;;;5027795;28;20209;-75
2022/05/12 06:06:46;;;;;;;3.60;2.07;;;20.30;93.60;;;;;;5029547;28;20191;-75
2022/05/12 06:09:13;;;;;;;4.40;2.13;;;20.40;93.30;;;;;;5029085;28;20206;-75
2022/05/12 06:11:44;;;;;;;4.97;2.50;;;20.50;92.20;;;;;;5028926;28;20179;-75
2022/05/12 06:14:11;;;;;;;8.37;2.20;;;20.50;92.00;;;;;;5028368;28;20666;-75
2022/05/12 06:16:37;;;;;;;3.33;2.13;;;20.50;90.60;;;;;;5013389;28;20195;-75
2022/05/12 06:19:04;;;;;;;3.07;2.20;;;20.60;91.50;;;;;;5028105;28;20182;-76
2022/05/12 06:21:31;;;;;;;3.90;2.00;;;20.60;90.40;;;;;;5029936;28;20190;-78
2022/05/12 06:24:05;;;;;;;2.40;2.20;;;20.60;90.70;;;;;;5029421;28;20218;-77
2022/05/12 06:26:36;;;;;;;3.70;2.40;;;20.70;85.70;;;;;;5041278;28;20214;-77
2022/05/12 06:29:02;;;;;;;3.63;2.10;;;20.60;87.10;;;;;;5028754;28;20676;-77
2022/05/12 06:31:32;;;;;;;2.73;2.10;;;20.60;89.20;;;;;;5029923;28;20208;-77
2022/05/12 06:33:59;;;;;;;3.97;2.00;;;20.60;90.40;;;;;;5013887;28;20181;-77
2022/05/12 06:36:28;;;;;;;5.17;2.33;;;20.60;85.50;;;;;;5017363;28;20553;-77
2022/05/12 06:38:54;;;;;;;5.77;2.40;;;20.60;86.60;;;;;;5031976;28;20240;-77
2022/05/12 06:41:21;;;;;;;2.80;2.10;;;20.60;89.60;;;;;;5032806;28;20183;-77
2022/05/12 06:43:51;;;;;;;4.27;2.03;;;20.70;90.10;;;;;;5033564;28;20293;-77
2022/05/12 06:46:18;;;;;;;5.17;2.37;;;20.80;88.40;;;;;;5030914;28;20245;-77
2022/05/12 06:48:50;;;;;;;4.27;2.20;;;20.80;87.90;;;;;;5028645;28;20179;-77
2022/05/12 06:51:17;;;;;;;4.33;2.33;;;20.80;85.90;;;;;;5032057;28;20205;-77
2022/05/12 06:53:46;;;;;;;4.87;2.17;;;20.70;86.20;;;;;;5032146;28;20244;-77
2022/05/12 06:56:16;;;;;;;3.40;2.10;;;20.70;83.10;;;;;;5027936;28;20262;-78
2022/05/12 06:58:42;;;;;;;4.23;2.10;;;20.60;82.00;;;;;;5029106;28;20368;-78
2022/05/12 07:01:10;;;;;;;3.50;2.00;;;20.70;82.50;;;;;;5020237;28;20194;-78
2022/05/12 07:03:37;;;;;;;3.63;2.13;;;20.70;84.00;;;;;;5022810;28;20210;-78
2022/05/12 07:06:30;;;;;;;4.73;2.00;;;20.70;84.80;;;;;;5027007;28;20187;-77
2022/05/12 07:08:59;;;;;;;3.57;2.37;;;20.80;83.80;;;;;;5030205;28;20191;-77
2022/05/12 07:11:25;;;;;;;2.97;2.27;;;20.90;84.00;;;;;;5026402;28;20265;-78
2022/05/12 07:13:54;;;;;;;3.73;2.27;;;20.90;85.30;;;;;;5030294;28;20183;-78
2022/05/12 07:16:21;;;;;;;4.23;2.40;;;20.90;84.00;;;;;;5013363;28;20257;-78
2022/05/12 07:18:48;;;;;;;3.60;2.10;;;21.00;84.60;;;;;;5012658;28;20251;-78
2022/05/12 07:26:47;;;;;;;4.10;2.20;;;21.30;80.90;;;;;;5018145;28;20198;-78
2022/05/12 07:29:20;;;;;;;2.87;2.10;;;21.30;79.00;;;;;;5031268;28;20182;-79
2022/05/12 07:31:49;;;;;;;4.97;2.47;;;21.40;77.60;;;;;;5031548;28;20348;-78
2022/05/12 07:34:48;;;;;;;3.63;2.20;;;21.50;76.50;;;;;;5022845;28;20221;-78
2022/05/12 07:37:15;;;;;;;3.83;2.27;;;21.50;77.20;;;;;;5019733;28;20205;-78
2022/05/12 07:39:41;;;;;;;4.00;2.10;;;21.60;78.20;;;;;;5022808;28;20517;-78
2022/05/12 07:42:07;;;;;;;2.67;2.10;;;21.60;76.30;;;;;;5026234;28;20221;-78
2022/05/12 07:44:34;;;;;;;4.23;2.40;;;21.60;77.00;;;;;;5031123;28;20271;-78
2022/05/12 07:47:09;;;;;;;5.87;2.17;;;21.70;76.20;;;;;;5032555;28;20203;-78
2022/05/12 07:49:36;;;;;;;3.57;2.00;;;21.80;71.50;;;;;;5019863;28;20664;-78
2022/05/12 07:52:05;;;;;;;3.40;1.90;;;21.80;69.20;;;;;;5012420;28;20175;-78
2022/05/12 07:54:37;;;;;;;2.77;1.90;;;21.80;66.40;;;;;;5012624;28;20198;-78
2022/05/12 07:57:04;;;;;;;4.33;2.33;;;21.80;66.50;;;;;;5013441;28;20294;-78
2022/05/12 07:59:34;;;;;;;4.27;2.10;;;21.80;65.80;;;;;;5044366;28;20253;-78
2022/05/12 08:02:01;;;;;;;2.57;1.80;;;21.80;66.80;;;;;;5026363;28;20232;-78
2022/05/12 08:04:28;;;;;;;4.97;1.90;;;22.00;67.00;;;;;;5012163;28;20207;-78
2022/05/12 08:06:58;;;;;;;4.20;1.80;;;22.10;65.30;;;;;;5024674;28;20260;-78
2022/05/12 08:09:24;;;;;;;4.67;1.90;;;22.20;64.00;;;;;;5029741;28;20186;-78
2022/05/12 08:11:51;;;;;;;2.97;1.70;;;22.20;61.30;;;;;;5027664;28;20183;-78
2022/05/12 08:14:18;;;;;;;5.23;2.03;;;22.10;59.60;;;;;;5036509;28;20187;-78
2022/05/12 08:16:46;;;;;;;4.17;1.80;;;22.10;60.20;;;;;;5022752;28;20309;-78
2022/05/12 08:19:13;;;;;;;2.37;1.60;;;22.10;59.40;;;;;;5011037;28;20172;-78
2022/05/12 08:21:40;;;;;;;6.93;1.87;;;22.20;59.30;;;;;;5027224;28;20244;-78
2022/05/12 08:24:07;;;;;;;6.03;1.63;;;22.30;59.50;;;;;;5033441;28;20210;-78
2022/05/12 08:26:37;;;;;;;5.47;1.77;;;22.40;58.10;;;;;;5050158;28;20197;-78
2022/05/12 08:29:06;;;;;;;2.07;1.40;;;22.40;58.60;;;;;;5051178;28;20255;-78
2022/05/12 08:31:34;;;;;;;3.50;1.70;;;22.50;58.20;;;;;;5051926;28;20177;-78
2022/05/12 08:34:01;;;;;;;4.80;1.90;;;22.70;59.30;;;;;;5051377;28;20477;-78
2022/05/12 08:36:28;;;;;;;2.80;1.77;;;22.80;58.40;;;;;;5051505;28;20178;-78
2022/05/12 08:38:55;;;;;;;5.97;1.67;;;23.00;57.60;;;;;;5029323;28;20205;-78
2022/05/12 08:41:38;;;;;;;3.37;1.90;;;23.20;58.10;;;;;;5030201;28;20175;-78
2022/05/12 08:44:13;;;;;;;6.00;1.80;;;23.30;57.80;;;;;;5031435;28;20272;-78
2022/05/12 08:46:56;;;;;;;3.13;1.77;;;23.40;57.40;;;;;;5030118;28;20264;-78
2022/05/12 08:49:28;;;;;;;3.50;1.70;;;23.40;56.80;;;;;;5045176;28;20205;-78
2022/05/12 08:52:06;;;;;;;5.03;1.57;;;23.30;55.80;;;;;;5049967;28;20181;-78
2022/05/12 08:54:36;;;;;;;3.17;1.60;;;23.20;55.40;;;;;;5050431;28;20567;-78
2022/05/12 08:57:06;;;;;;;6.87;3.47;;;23.20;55.70;;;;;;5025502;28;20230;-78
2022/05/12 08:59:37;;;;;;;7.80;2.90;;;23.40;55.20;;;;;;5029242;28;20191;-78
2022/05/12 09:02:30;;;;;;;5.63;2.10;;;23.40;55.10;;;;;;5025240;28;20615;-78
2022/05/12 09:05:11;;;;;;;4.23;1.40;;;23.40;55.20;;;;;;5027332;28;20659;-78
2022/05/12 09:08:05;;;;;;;2.83;1.37;;;23.30;54.20;;;;;;5024145;28;20312;-78
2022/05/12 09:10:50;;;;;;;4.33;2.00;;;23.20;54.80;;;;;;5026889;28;20272;-78
2022/05/12 09:13:30;;;;;;;3.43;1.70;;;23.20;55.10;;;;;;5050841;28;20181;-78
2022/05/12 09:16:06;;;;;;;3.37;1.50;;;23.20;54.80;;;;;;5047238;28;20177;-78
2022/05/12 09:18:36;;;;;;;5.13;1.40;;;23.40;54.80;;;;;;5029610;28;20332;-78
2022/05/12 09:21:07;;;;;;;6.03;1.80;;;23.40;54.50;;;;;;5030788;28;20539;-78
2022/05/12 09:23:35;;;;;;;3.30;1.60;;;23.40;53.10;;;;;;5036750;28;20213;-78
2022/05/12 09:26:31;;;;;;;5.20;1.50;;;23.20;54.20;;;;;;5040206;28;20276;-78
2022/05/12 09:29:11;;;;;;;5.00;1.87;;;23.20;54.70;;;;;;5048736;28;20181;-78
2022/05/12 09:31:39;;;;;;;3.57;1.70;;;23.20;54.50;;;;;;5037537;28;20558;-78
2022/05/12 09:34:32;;;;;;;3.07;1.70;;;23.10;54.70;;;;;;5010875;28;20569;-78
2022/05/12 09:37:21;;;;;;;3.03;1.60;;;23.20;55.30;;;;;;5019849;28;20207;-78
2022/05/12 09:39:53;;;;;;;3.50;1.60;;;23.40;54.80;;;;;;5025567;28;20673;-79
2022/05/12 09:42:32;;;;;;;3.27;1.50;;;23.50;54.70;;;;;;5023608;28;20199;-79
2022/05/12 09:45:21;;;;;;;3.47;1.60;;;23.60;53.90;;;;;;5025795;28;20871;-78
2022/05/12 09:47:48;;;;;;;4.87;1.77;;;23.60;54.30;;;;;;5024933;28;20594;-79
2022/05/12 09:50:26;;;;;;;3.77;1.70;;;23.60;53.60;;;;;;5027936;28;20182;-79
2022/05/12 09:52:58;;;;;;;4.90;1.80;;;23.50;54.10;;;;;;5035479;28;20188;-78
2022/05/12 09:55:32;;;;;;;3.30;1.30;;;23.50;54.40;;;;;;5025915;28;20388;-78
2022/05/12 09:58:14;;;;;;;4.70;1.50;;;23.50;54.30;;;;;;5015726;28;20206;-78
2022/05/12 10:00:43;;;;;;;2.60;1.47;;;23.60;53.20;;;;;;5025757;28;20195;-78
2022/05/12 10:09:25;;;;;;;2.87;1.40;;;24.00;53.00;;;;;;5035809;28;20300;-78
2022/05/12 10:12:25;;;;;;;2.77;1.50;;;24.20;52.50;;;;;;5022819;28;20191;-78
2022/05/12 10:14:57;;;;;;;3.37;1.73;;;24.10;50.90;;;;;;5016981;28;20276;-78
2022/05/12 10:17:35;;;;;;;2.87;1.30;;;24.10;51.10;;;;;;5022035;28;20321;-78
2022/05/12 10:20:08;;;;;;;4.67;1.50;;;24.20;50.40;;;;;;5026714;28;20562;-78
2022/05/12 10:22:43;;;;;;;2.43;1.30;;;24.20;50.90;;;;;;5013106;28;20619;-78
2022/05/12 10:25:56;;;;;;;4.33;1.63;;;24.20;50.70;;;;;;5034038;28;20206;-78
2022/05/12 10:29:23;;;;;;;3.60;1.40;;;24.10;50.70;;;;;;5015077;28;20187;-79
2022/05/12 10:32:23;;;;;;;3.23;1.40;;;24.10;50.90;;;;;;5016990;28;20293;-78
2022/05/12 10:35:08;;;;;;;2.97;1.50;;;24.00;50.30;;;;;;5019591;28;20187;-78
2022/05/12 10:37:51;;;;;;;2.30;1.40;;;23.90;50.80;;;;;;5009699;28;20210;-79
2022/05/12 10:40:50;;;;;;;6.93;1.60;;;23.90;50.50;;;;;;5024803;28;20201;-79
2022/05/12 10:43:32;;;;;;;3.43;1.67;;;23.80;50.30;;;;;;5024688;28;20186;-79
2022/05/12 10:46:13;;;;;;;3.17;1.83;;;23.90;50.40;;;;;;5029463;28;20182;-78
2022/05/12 10:49:07;;;;;;;4.03;1.67;;;23.80;50.20;;;;;;5026300;28;20207;-76
2022/05/12 10:52:08;;;;;;;3.07;1.33;;;23.90;51.00;;;;;;5034805;28;20207;-78
2022/05/12 10:55:04;;;;;;;3.33;1.60;;;24.10;50.70;;;;;;5035998;28;20249;-79
2022/05/12 10:57:45;;;;;;;2.53;1.40;;;24.30;50.00;;;;;;5024956;28;20245;-79
2022/05/12 11:00:36;;;;;;;3.60;1.70;;;24.20;50.30;;;;;;5032575;28;20198;-78
2022/05/12 11:03:13;;;;;;;4.80;1.60;;;24.20;49.70;;;;;;5030368;28;20179;-79
2022/05/12 11:05:45;;;;;;;4.00;1.40;;;24.30;50.50;;;;;;5030072;28;20174;-79
2022/05/12 11:08:19;;;;;;;3.13;1.30;;;24.50;49.60;;;;;;5034740;28;20210;-78
2022/05/12 11:10:48;;;;;;;2.90;1.60;;;24.50;49.70;;;;;;5034581;28;20186;-79
2022/05/12 11:13:37;;;;;;;3.23;1.50;;;24.70;50.10;;;;;;5033598;28;20574;-79
2022/05/12 11:16:18;;;;;;;2.80;1.50;;;24.60;48.80;;;;;;5030529;28;20684;-79
2022/05/12 11:19:23;;;;;;;4.93;1.63;;;24.70;49.20;;;;;;5023485;28;20674;-78
2022/05/12 11:22:07;;;;;;;3.40;1.60;;;24.80;49.20;;;;;;5028566;28;20244;-78
2022/05/12 11:24:39;;;;;;;6.63;1.80;;;25.10;49.20;;;;;;5027559;28;20214;-79
2022/05/12 11:27:28;;;;;;;3.57;1.73;;;25.30;48.40;;;;;;5035957;28;20202;-78
2022/05/12 11:30:16;;;;;;;2.47;1.60;;;25.40;47.70;;;;;;5031721;28;20182;-78
2022/05/12 11:33:13;;;;;;;4.97;1.57;;;25.50;47.70;;;;;;5028876;28;20516;-78
2022/05/12 11:35:50;;;;;;;4.43;1.70;;;25.60;47.80;;;;;;5024888;28;20189;-79
2022/05/12 11:38:36;;;;;;;7.97;1.50;;;25.40;47.00;;;;;;5025270;28;20283;-79
2022/05/12 11:41:20;;;;;;;5.03;1.73;;;25.70;47.90;;;;;;5040829;28;20192;-79
2022/05/12 11:47:00;;;;;;;3.83;1.60;;;26.20;46.90;;;;;;5030752;28;20254;-78
2022/05/12 11:50:05;;;;;;;2.90;1.40;;;26.60;46.40;;;;;;5029463;28;20571;-78
2022/05/12 11:52:58;;;;;;;2.67;1.33;;;27.00;46.30;;;;;;5023487;28;20210;-78
2022/05/12 11:55:25;;;;;;;3.07;1.30;;;;;;;;;;5053816;28;20191;-78
2022/05/12 11:58:01;;;;;;;3.27;1.90;;;;;;;;;;5015987;28;20213;-78
2022/05/12 12:00:34;;;;;;;4.07;1.63;;;;;;;;;;5011722;28;20210;-78
2022/05/12 12:03:16;;;;;;;3.23;1.63;;;;;;;;;;5027707;28;20179;-79
2022/05/12 12:05:49;;;;;;;1.97;1.37;;;;;;;;;;5021666;28;20244;-79
2022/05/12 12:08:33;;;;;;;4.67;1.50;;;;;;;;;;5030220;28;20225;-79
2022/05/12 12:11:17;;;;;;;3.40;1.30;;;;;;;;;;5029424;28;20181;-79
2022/05/12 12:13:45;;;;;;;1.83;1.53;;;;;;;;;;5031819;28;20194;-79
2022/05/12 12:16:16;;;;;;;2.83;1.50;;;;;;;;;;5028583;28;20187;-79
2022/05/12 12:18:45;;;;;;;2.33;1.50;;;;;;;;;;5026722;28;20203;-79
2022/05/12 12:21:27;;;;;;;4.97;1.87;;;;;;;;;;5032469;28;20269;-79
2022/05/12 12:24:03;;;;;;;4.00;1.50;;;;;;;;;;5028519;28;20198;-79
2022/05/12 12:26:36;;;;;;;3.93;1.37;;;;;;;;;;5032470;28;20552;-79
2022/05/12 12:29:09;;;;;;;3.87;1.40;;;;;;;;;;5027768;28;20221;-79
2022/05/12 12:31:40;;;;;;;2.57;1.37;;;;;;;;;;5031063;28;20190;-79
2022/05/12 12:34:23;;;;;;;6.93;1.50;;;;;;;;;;5026205;28;20178;-79
2022/05/12 12:36:50;;;;;;;2.37;1.30;;;;;;;;;;5029144;28;20212;-78
2022/05/12 12:39:37;;;;;;;4.70;1.27;;;;;;;;;;5030347;28;20245;-78
2022/05/12 12:42:20;;;;;;;2.77;1.30;;;;;;;;;;5029138;28;20192;-79
2022/05/12 12:44:49;;;;;;;2.53;1.27;;;;;;;;;;5027571;28;20217;-79
2022/05/12 12:47:29;;;;;;;5.33;1.40;;;;;;;;;;5029068;28;20195;-78
2022/05/12 12:50:05;;;;;;;2.43;1.33;;;;;;;;;;5027330;28;20180;-78
2022/05/12 12:52:39;;;;;;;2.43;1.30;;;;;;;;;;5031641;28;20564;-78
2022/05/12 12:58:02;;;;;;;3.57;1.50;;;;;;;;;;5025382;28;20214;-78
2022/05/12 13:00:33;;;;;;;4.13;1.40;;;;;;;;;;5021949;28;20201;-78
2022/05/12 13:03:01;;;;;;;2.30;1.30;;;;;;;;;;5014853;28;20179;-78
2022/05/12 13:05:28;;;;;;;2.47;1.37;;;;;;;;;;5026468;28;20217;-79
2022/05/12 13:07:59;;;;;;;1.90;1.30;;;;;;;;;;5029181;28;20650;-78
2022/05/12 13:10:26;;;;;;;3.77;1.60;;;;;;;;;;5026835;28;20181;-85
2022/05/12 13:12:55;;;;;;;1.97;1.30;;;;;;;;;;5031093;28;20651;-80
2022/05/12 13:15:30;;;;;;;1.97;1.33;;;;;;;;;;5028841;28;20624;-78
2022/05/12 13:18:01;;;;;;;2.23;1.20;;;;;;;;;;5023158;28;20208;-77
2022/05/12 13:20:33;;;;;;;4.33;1.23;;;;;;;;;;5025399;28;20186;-77
2022/05/12 13:23:05;;;;;;;5.73;1.37;;;;;;;;;;5029641;28;20199;-77
2022/05/12 13:25:33;;;;;;;1.60;1.20;;;;;;;;;;5028583;28;20247;-77
2022/05/12 13:28:06;;;;;;;1.70;1.27;;;;;;;;;;5030785;28;20289;-78
2022/05/12 13:30:44;;;;;;;2.30;1.50;;;;;;;;;;5026500;28;20593;-77
2022/05/12 13:33:22;;;;;;;5.07;1.50;;;;;;;;;;5029501;28;20191;-80
2022/05/12 13:35:55;;;;;;;3.27;1.57;;;;;;;;;;5028748;28;20184;-80
2022/05/12 13:38:26;;;;;;;2.30;1.30;;;;;;;;;;5031121;28;20203;-79
2022/05/12 13:40:55;;;;;;;3.07;1.57;;;;;;;;;;5026095;28;20203;-75
2022/05/12 13:43:30;;;;;;;3.97;1.50;;;;;;;;;;5027963;28;20566;-74
2022/05/12 13:46:05;;;;;;;3.70;1.37;;;;;;;;;;5030671;28;20185;-75
2022/05/12 13:48:34;;;;;;;2.07;1.43;;;;;;;;;;5049175;28;20203;-77
2022/05/12 13:51:01;;;;;;;4.87;1.43;;;;;;;;;;5030591;28;20533;-75
2022/05/12 13:53:47;;;;;;;2.90;1.30;;;;;;;;;;5029428;28;20570;-76
2022/05/12 13:56:28;;;;;;;1.70;1.20;;;;;;;;;;5029242;28;20619;-76
2022/05/12 13:58:56;;;;;;;4.03;1.50;;;;;;;;;;5028948;28;20184;-77
2022/05/12 14:01:30;;;;;;;1.83;1.17;;;;;;;;;;5032027;28;20204;-78
2022/05/12 14:04:15;;;;;;;2.97;1.60;;;;;;;;;;5029968;28;20211;-77
2022/05/12 14:06:54;;;;;;;2.57;1.40;;;;;;;;;;5029179;28;20213;-75
2022/05/12 14:09:31;;;;;;;3.13;1.50;;;;;;;;;;5027104;28;20186;-77